createdAt,value
2023-01-18T00:00:31.102Z,65.25
2023-01-18T00:06:01.671Z,65.67
2023-01-18T00:11:22.763Z,66.02
2023-01-18T00:16:43.555Z,65.69
2023-01-18T00:22:04.261Z,65.69
2023-01-18T00:27:24.997Z,65.64
2023-01-18T00:32:47.409Z,65.76
2023-01-18T00:38:11.176Z,66.40
2023-01-18T00:43:41.213Z,65.55
2023-01-18T00:49:02.046Z,65.97
2023-01-18T00:54:24.339Z,66.36
2023-01-18T00:59:46.724Z,66.23
2023-01-18T01:05:49.459Z,66.40
2023-01-18T01:11:12.403Z,66.08
2023-01-18T01:16:51.810Z,66.83
2023-01-18T01:22:30.923Z,66.39
2023-01-18T01:27:51.968Z,66.48
2023-01-18T01:33:12.775Z,66.62
2023-01-18T01:38:33.893Z,66.50
2023-01-18T01:43:59.701Z,67.15
2023-01-18T01:49:32.935Z,67.15
2023-01-18T01:55:09.048Z,67.08
2023-01-18T02:00:30.794Z,66.67
2023-01-18T02:06:24.803Z,67.36
2023-01-18T02:11:45.907Z,67.60
2023-01-18T02:17:15.421Z,67.61
2023-01-18T02:22:45.347Z,67.14
2023-01-18T02:28:11.850Z,67.59
2023-01-18T02:33:42.015Z,67.41
2023-01-18T02:39:23.453Z,68.01
2023-01-18T02:45:05.297Z,67.69
2023-01-18T02:50:27.928Z,67.61
2023-01-18T02:56:17.294Z,68.28
2023-01-18T03:01:59.959Z,67.98
2023-01-18T03:07:26.600Z,67.89
2023-01-18T03:13:12.530Z,67.87
2023-01-18T03:19:02.369Z,68.37
2023-01-18T03:24:23.726Z,68.28
2023-01-18T03:30:05.119Z,68.65
2023-01-18T03:35:28.546Z,68.45
2023-01-18T03:40:49.675Z,67.87
2023-01-18T03:46:12.415Z,68.72
2023-01-18T03:52:07.733Z,68.05
2023-01-18T03:57:50.319Z,67.47
2023-01-18T04:03:11.179Z,68.07
2023-01-18T04:08:32.107Z,68.22
2023-01-18T04:13:54.509Z,68.57
2023-01-18T04:19:15.570Z,68.99
2023-01-18T04:24:36.197Z,68.21
2023-01-18T04:29:58.569Z,68.44
2023-01-18T04:35:19.184Z,69.09
2023-01-18T04:40:39.973Z,68.40
2023-01-18T04:46:00.673Z,68.75
2023-01-18T04:51:23.955Z,68.30
2023-01-18T04:56:45.640Z,68.86
2023-01-18T05:02:06.327Z,68.48
2023-01-18T05:07:27.475Z,68.79
2023-01-18T05:12:48.049Z,68.66
2023-01-18T05:18:08.838Z,69.28
2023-01-18T05:23:29.692Z,69.52
2023-01-18T05:28:56.032Z,69.38
2023-01-18T05:34:16.830Z,68.50
2023-01-18T05:39:37.748Z,68.59
2023-01-18T05:44:59.274Z,68.93
2023-01-18T05:50:20.481Z,68.58
2023-01-18T05:55:41.701Z,69.25
2023-01-18T06:01:02.765Z,69.41
2023-01-18T06:06:23.431Z,68.60
2023-01-18T06:11:44.244Z,69.09
2023-01-18T06:17:06.680Z,71.61
2023-01-18T06:22:27.440Z,68.99
2023-01-18T06:27:48.157Z,68.32
2023-01-18T06:33:10.113Z,69.23
2023-01-18T06:38:31.657Z,69.14
2023-01-18T06:43:52.833Z,69.16
2023-01-18T06:49:14.566Z,69.03
2023-01-18T06:54:36.162Z,69.12
2023-01-18T06:59:56.624Z,68.84
2023-01-18T07:05:17.444Z,69.28
2023-01-18T07:10:38.267Z,69.49
2023-01-18T07:16:01.936Z,69.70
2023-01-18T07:21:29.458Z,69.35
2023-01-18T07:26:50.259Z,69.54
2023-01-18T07:32:10.990Z,68.79
2023-01-18T07:37:31.771Z,69.37
2023-01-18T07:42:58.874Z,69.15
2023-01-18T07:48:20.132Z,69.14
2023-01-18T07:53:41.563Z,69.23
2023-01-18T07:59:02.216Z,68.72
2023-01-18T08:04:22.967Z,69.49
2023-01-18T08:09:44.136Z,69.52
2023-01-18T08:15:05.591Z,69.17
2023-01-18T08:20:26.286Z,69.38
2023-01-18T08:25:47.655Z,69.11
2023-01-18T08:31:13.238Z,68.52
2023-01-18T08:36:33.848Z,68.73
2023-01-18T08:41:54.646Z,69.12
2023-01-18T08:47:16.182Z,69.30
2023-01-18T08:52:36.910Z,69.62
2023-01-18T08:57:58.444Z,69.56
2023-01-18T09:03:22.548Z,69.39
2023-01-18T09:08:43.320Z,69.46
2023-01-18T09:14:04.080Z,69.99
2023-01-18T09:19:24.971Z,69.94
2023-01-18T09:24:46.023Z,69.63
2023-01-18T09:30:07.444Z,69.53
2023-01-18T09:35:28.614Z,70.07
2023-01-18T09:40:53.080Z,70.08
2023-01-18T09:46:19.245Z,69.75
2023-01-18T09:51:53.376Z,69.19
2023-01-18T09:57:26.470Z,69.50
2023-01-18T10:02:50.231Z,69.49
2023-01-18T10:08:18.479Z,69.78
2023-01-18T10:13:57.083Z,69.72
2023-01-18T10:19:22.655Z,69.74
2023-01-18T10:25:13.166Z,69.46
2023-01-18T10:30:46.524Z,69.57
2023-01-18T10:36:12.616Z,69.60
2023-01-18T10:41:40.723Z,69.76
2023-01-18T10:47:01.719Z,69.83
2023-01-18T10:52:29.111Z,69.50
2023-01-18T10:57:54.248Z,69.36
2023-01-18T11:03:15.163Z,69.39
2023-01-18T11:08:36.417Z,69.73
2023-01-18T11:13:57.201Z,68.95
2023-01-18T11:19:18.456Z,69.37
2023-01-18T11:24:39.775Z,69.94
2023-01-18T11:30:01.350Z,68.91
2023-01-18T11:35:37.237Z,69.76
2023-01-18T11:41:04.406Z,69.61
2023-01-18T11:46:46.147Z,69.09
2023-01-18T11:52:46.841Z,69.64
2023-01-18T11:58:22.777Z,69.67
2023-01-18T12:03:58.551Z,69.12
2023-01-18T12:09:46.020Z,69.62
2023-01-18T12:15:34.519Z,70.94
2023-01-18T12:21:25.113Z,69.34
2023-01-18T12:27:02.177Z,69.54
2023-01-18T12:32:35.267Z,68.72
2023-01-18T12:38:08.070Z,69.57
2023-01-18T12:43:47.369Z,69.17
2023-01-18T12:49:17.279Z,69.30
2023-01-18T12:54:45.973Z,70.18
2023-01-18T13:00:25.146Z,69.96
2023-01-18T13:06:00.931Z,69.73
2023-01-18T13:11:37.767Z,69.09
2023-01-18T13:17:04.938Z,69.09
2023-01-18T13:22:44.364Z,70.07
2023-01-18T13:28:16.852Z,69.21
2023-01-18T13:33:41.069Z,69.68
2023-01-18T13:39:12.868Z,69.35
2023-01-18T13:44:47.199Z,69.90
2023-01-18T13:50:41.370Z,69.95
2023-01-18T13:56:08.706Z,68.92
2023-01-18T14:01:35.860Z,68.85
2023-01-18T14:07:00.727Z,69.33
2023-01-18T14:12:50.619Z,69.13
2023-01-18T14:18:29.722Z,69.83
2023-01-18T14:24:18.596Z,69.66
2023-01-18T14:29:49.419Z,69.42
2023-01-18T14:35:25.755Z,69.72
2023-01-18T14:40:52.722Z,69.59
2023-01-18T14:46:21.661Z,69.68
2023-01-18T14:51:48.884Z,69.87
2023-01-18T14:57:14.424Z,70.18
2023-01-18T15:02:38.691Z,69.83
2023-01-18T15:07:59.948Z,69.17
2023-01-18T15:13:23.174Z,69.60
2023-01-18T15:18:46.485Z,69.97
2023-01-18T15:24:16.235Z,69.88
2023-01-18T15:29:38.930Z,69.96
2023-01-18T15:35:01.109Z,69.64
2023-01-18T15:40:28.130Z,71.12
2023-01-18T15:45:55.255Z,69.84
2023-01-18T15:51:16.364Z,69.65
2023-01-18T15:56:37.497Z,69.63
2023-01-18T16:02:25.822Z,69.97
2023-01-18T16:07:49.341Z,69.19
2023-01-18T16:13:26.489Z,69.85
2023-01-18T16:19:13.730Z,69.42
2023-01-18T16:24:35.058Z,68.94
2023-01-18T16:29:56.945Z,69.71
2023-01-18T16:35:22.748Z,69.47
2023-01-18T16:40:46.985Z,69.05
2023-01-18T16:46:08.044Z,69.41
2023-01-18T16:51:28.803Z,69.60
2023-01-18T16:56:50.191Z,69.31
2023-01-18T17:02:11.475Z,69.74
2023-01-18T17:07:33.156Z,69.36
2023-01-18T17:12:55.306Z,69.39
2023-01-18T17:18:18.422Z,68.76
2023-01-18T17:23:40.051Z,69.81
2023-01-18T17:29:01.126Z,69.93
2023-01-18T17:34:28.059Z,70.26
2023-01-18T17:40:11.008Z,69.25
2023-01-18T17:45:33.940Z,68.78
2023-01-18T17:50:54.536Z,69.15
2023-01-18T17:56:17.242Z,69.01
2023-01-18T18:01:45.589Z,69.88
2023-01-18T18:07:06.754Z,68.92
2023-01-18T18:12:29.041Z,68.90
2023-01-18T18:17:49.804Z,69.57
2023-01-18T18:23:11.625Z,69.12
2023-01-18T18:28:33.592Z,69.68
2023-01-18T18:33:54.266Z,69.23
2023-01-18T18:39:15.625Z,69.46
2023-01-18T18:44:36.647Z,69.25
2023-01-18T18:49:58.150Z,69.27
2023-01-18T18:55:19.085Z,68.82
2023-01-18T19:00:40.066Z,68.88
2023-01-18T19:06:00.823Z,68.85
2023-01-18T19:11:21.909Z,69.70
2023-01-18T19:16:43.672Z,69.05
2023-01-18T19:22:04.602Z,69.44
2023-01-18T19:27:25.240Z,69.62
2023-01-18T19:32:48.117Z,69.03
2023-01-18T19:38:09.690Z,69.31
2023-01-18T19:43:30.309Z,69.22
2023-01-18T19:48:56.616Z,69.27
2023-01-18T19:54:17.712Z,68.93
2023-01-18T19:59:38.907Z,69.04
2023-01-18T20:05:00.253Z,68.87
2023-01-18T20:10:21.171Z,69.55
2023-01-18T20:15:45.416Z,69.96
2023-01-18T20:21:12.063Z,69.79
2023-01-18T20:26:37.354Z,69.39
2023-01-18T20:32:13.045Z,68.57
2023-01-18T20:37:36.329Z,69.82
2023-01-18T20:42:57.304Z,69.12
2023-01-18T20:48:18.449Z,69.89
2023-01-18T20:53:39.345Z,69.68
2023-01-18T20:59:00.246Z,69.97
2023-01-18T21:04:20.950Z,69.60
2023-01-18T21:09:41.629Z,69.54
2023-01-18T21:15:02.442Z,69.93
2023-01-18T21:20:24.149Z,69.88
2023-01-18T21:26:01.647Z,69.32
2023-01-18T21:31:22.685Z,69.68
2023-01-18T21:36:43.825Z,69.37
2023-01-18T21:42:23.012Z,69.59
2023-01-18T21:47:44.518Z,69.81
2023-01-18T21:53:23.699Z,69.04
2023-01-18T21:58:55.125Z,69.06
2023-01-18T22:04:34.720Z,69.50
2023-01-18T22:10:04.613Z,70.01
2023-01-18T22:15:26.361Z,69.14
2023-01-18T22:20:56.426Z,69.57
2023-01-18T22:26:17.661Z,69.92
2023-01-18T22:31:38.979Z,70.25
2023-01-18T22:36:59.611Z,69.94
2023-01-18T22:42:20.439Z,69.95
2023-01-18T22:47:41.067Z,69.92
2023-01-18T22:53:01.977Z,69.58
2023-01-18T22:58:22.676Z,69.57
2023-01-18T23:03:44.610Z,69.37
2023-01-18T23:09:05.622Z,69.14
2023-01-18T23:14:44.785Z,69.42
2023-01-18T23:20:11.489Z,68.99
2023-01-18T23:25:35.021Z,69.91
2023-01-18T23:30:56.078Z,69.63
2023-01-18T23:36:16.907Z,69.23
2023-01-18T23:41:56.161Z,69.72
2023-01-18T23:47:35.379Z,69.38
2023-01-18T23:53:17.401Z,69.15
2023-01-18T23:58:39.255Z,69.30
